sensor_id;sensor_type;location;lat;lon;timestamp;temperature;humidity
32839;DHT22;19182;41.820;12.808;2022-11-20T00:00:12;10.90;99.90
32839;DHT22;19182;41.820;12.808;2022-11-20T00:02:38;10.90;99.90
32839;DHT22;19182;41.820;12.808;2022-11-20T00:05:05;10.80;99.90
32839;DHT22;19182;41.820;12.808;2022-11-20T00:07:31;10.80;99.90
32839;DHT22;19182;41.820;12.808;2022-11-20T00:09:56;10.80;99.90
32839;DHT22;19182;41.820;12.808;2022-11-20T00:12:22;10.70;99.90
32839;DHT22;19182;41.820;12.808;2022-11-20T00:14:48;10.70;99.90
32839;DHT22;19182;41.820;12.808;2022-11-20T00:17:14;10.60;99.90
32839;DHT22;19182;41.820;12.808;2022-11-20T00:19:40;10.40;99.90
32839;DHT22;19182;41.820;12.808;2022-11-20T00:22:06;10.30;99.90
32839;DHT22;19182;41.820;12.808;2022-11-20T00:24:31;10.30;99.90
32839;DHT22;19182;41.820;12.808;2022-11-20T00:26:57;10.20;99.90
32839;DHT22;19182;41.820;12.808;2022-11-20T00:29:22;10.20;99.90
32839;DHT22;19182;41.820;12.808;2022-11-20T00:31:51;10.30;99.90
32839;DHT22;19182;41.820;12.808;2022-11-20T00:34:17;10.10;99.90
32839;DHT22;19182;41.820;12.808;2022-11-20T00:36:42;10.10;99.90
32839;DHT22;19182;41.820;12.808;2022-11-20T00:39:08;10.10;99.90
32839;DHT22;19182;41.820;12.808;2022-11-20T00:41:35;10.00;99.90
32839;DHT22;19182;41.820;12.808;2022-11-20T00:44:01;10.00;99.90
32839;DHT22;19182;41.820;12.808;2022-11-20T00:46:27;10.00;99.90
32839;DHT22;19182;41.820;12.808;2022-11-20T00:48:53;10.00;99.90
32839;DHT22;19182;41.820;12.808;2022-11-20T00:51:21;10.00;99.90
32839;DHT22;19182;41.820;12.808;2022-11-20T00:53:48;10.10;99.90
32839;DHT22;19182;41.820;12.808;2022-11-20T00:56:16;10.00;99.90
32839;DHT22;19182;41.820;12.808;2022-11-20T00:58:47;10.10;99.90
32839;DHT22;19182;41.820;12.808;2022-11-20T01:01:18;10.00;99.90
32839;DHT22;19182;41.820;12.808;2022-11-20T01:03:48;9.90;99.90
32839;DHT22;19182;41.820;12.808;2022-11-20T01:06:20;9.90;99.90
32839;DHT22;19182;41.820;12.808;2022-11-20T01:08:46;9.80;99.90
32839;DHT22;19182;41.820;12.808;2022-11-20T01:11:14;9.70;99.90
32839;DHT22;19182;41.820;12.808;2022-11-20T01:13:42;9.50;99.90
32839;DHT22;19182;41.820;12.808;2022-11-20T01:16:15;9.60;99.90
32839;DHT22;19182;41.820;12.808;2022-11-20T01:18:45;9.60;99.90
32839;DHT22;19182;41.820;12.808;2022-11-20T01:21:15;9.70;99.90
32839;DHT22;19182;41.820;12.808;2022-11-20T01:23:43;9.70;99.90
32839;DHT22;19182;41.820;12.808;2022-11-20T01:26:12;9.80;99.90
32839;DHT22;19182;41.820;12.808;2022-11-20T01:28:39;9.80;99.90
32839;DHT22;19182;41.820;12.808;2022-11-20T01:31:23;9.80;99.90
32839;DHT22;19182;41.820;12.808;2022-11-20T01:33:51;9.90;99.90
32839;DHT22;19182;41.820;12.808;2022-11-20T01:36:18;9.90;99.90
32839;DHT22;19182;41.820;12.808;2022-11-20T01:38:46;9.80;99.90
32839;DHT22;19182;41.820;12.808;2022-11-20T01:41:13;9.90;99.90
32839;DHT22;19182;41.820;12.808;2022-11-20T01:43:59;9.80;99.90
32839;DHT22;19182;41.820;12.808;2022-11-20T01:46:25;9.80;99.90
32839;DHT22;19182;41.820;12.808;2022-11-20T01:51:41;9.90;99.90
32839;DHT22;19182;41.820;12.808;2022-11-20T01:54:15;10.00;99.90
32839;DHT22;19182;41.820;12.808;2022-11-20T01:56:44;10.00;99.90
32839;DHT22;19182;41.820;12.808;2022-11-20T01:59:10;9.90;99.90
32839;DHT22;19182;41.820;12.808;2022-11-20T02:04:13;10.10;99.90
32839;DHT22;19182;41.820;12.808;2022-11-20T02:06:49;10.00;99.90
32839;DHT22;19182;41.820;12.808;2022-11-20T02:09:16;10.00;99.90
32839;DHT22;19182;41.820;12.808;2022-11-20T02:11:42;10.00;99.90
32839;DHT22;19182;41.820;12.808;2022-11-20T02:14:08;10.10;99.90
32839;DHT22;19182;41.820;12.808;2022-11-20T02:16:43;10.00;99.90
32839;DHT22;19182;41.820;12.808;2022-11-20T02:19:21;9.90;99.90
32839;DHT22;19182;41.820;12.808;2022-11-20T02:22:23;9.90;99.90
32839;DHT22;19182;41.820;12.808;2022-11-20T02:24:50;9.90;99.90
32839;DHT22;19182;41.820;12.808;2022-11-20T02:27:16;9.80;99.90
32839;DHT22;19182;41.820;12.808;2022-11-20T02:30:01;10.00;99.90
32839;DHT22;19182;41.820;12.808;2022-11-20T02:32:33;9.90;99.90
32839;DHT22;19182;41.820;12.808;2022-11-20T02:35:10;9.80;99.90
32839;DHT22;19182;41.820;12.808;2022-11-20T02:37:54;9.80;99.90
32839;DHT22;19182;41.820;12.808;2022-11-20T02:40:21;9.90;99.90
32839;DHT22;19182;41.820;12.808;2022-11-20T02:42:47;9.90;99.90
32839;DHT22;19182;41.820;12.808;2022-11-20T02:45:13;10.00;99.90
32839;DHT22;19182;41.820;12.808;2022-11-20T02:47:39;10.00;99.90
32839;DHT22;19182;41.820;12.808;2022-11-20T02:50:06;10.20;99.90
32839;DHT22;19182;41.820;12.808;2022-11-20T02:52:32;10.20;99.90
32839;DHT22;19182;41.820;12.808;2022-11-20T02:54:59;10.20;99.90
32839;DHT22;19182;41.820;12.808;2022-11-20T02:57:24;10.30;99.90
32839;DHT22;19182;41.820;12.808;2022-11-20T02:59:50;10.40;99.90
32839;DHT22;19182;41.820;12.808;2022-11-20T03:02:16;10.40;99.90
32839;DHT22;19182;41.820;12.808;2022-11-20T03:04:42;10.40;99.90
32839;DHT22;19182;41.820;12.808;2022-11-20T03:07:08;10.40;99.90
32839;DHT22;19182;41.820;12.808;2022-11-20T03:09:34;10.40;99.90
32839;DHT22;19182;41.820;12.808;2022-11-20T03:11:59;10.50;99.90
32839;DHT22;19182;41.820;12.808;2022-11-20T03:14:25;10.50;99.90
32839;DHT22;19182;41.820;12.808;2022-11-20T03:16:51;10.50;99.90
32839;DHT22;19182;41.820;12.808;2022-11-20T03:19:18;10.40;99.90
32839;DHT22;19182;41.820;12.808;2022-11-20T03:21:43;10.40;99.90
32839;DHT22;19182;41.820;12.808;2022-11-20T03:24:09;10.40;99.90
32839;DHT22;19182;41.820;12.808;2022-11-20T03:26:35;10.30;99.90
32839;DHT22;19182;41.820;12.808;2022-11-20T03:29:03;10.30;99.90
32839;DHT22;19182;41.820;12.808;2022-11-20T03:31:38;10.30;99.90
32839;DHT22;19182;41.820;12.808;2022-11-20T03:34:09;10.30;99.90
32839;DHT22;19182;41.820;12.808;2022-11-20T03:36:38;10.30;99.90
32839;DHT22;19182;41.820;12.808;2022-11-20T03:39:04;10.20;99.90
32839;DHT22;19182;41.820;12.808;2022-11-20T03:41:35;10.10;99.90
32839;DHT22;19182;41.820;12.808;2022-11-20T03:44:02;10.10;99.90
32839;DHT22;19182;41.820;12.808;2022-11-20T03:46:29;10.00;99.90
32839;DHT22;19182;41.820;12.808;2022-11-20T03:48:55;9.90;99.90
32839;DHT22;19182;41.820;12.808;2022-11-20T03:51:26;9.90;99.90
32839;DHT22;19182;41.820;12.808;2022-11-20T03:53:55;9.80;99.90
32839;DHT22;19182;41.820;12.808;2022-11-20T03:56:30;9.70;99.90
32839;DHT22;19182;41.820;12.808;2022-11-20T03:58:59;9.60;99.90
32839;DHT22;19182;41.820;12.808;2022-11-20T04:01:31;9.50;99.90
32839;DHT22;19182;41.820;12.808;2022-11-20T04:03:57;9.40;99.90
32839;DHT22;19182;41.820;12.808;2022-11-20T04:06:29;9.40;99.90
32839;DHT22;19182;41.820;12.808;2022-11-20T04:08:58;9.40;99.90
32839;DHT22;19182;41.820;12.808;2022-11-20T04:11:29;9.40;99.90
32839;DHT22;19182;41.820;12.808;2022-11-20T04:13:57;9.40;99.90
32839;DHT22;19182;41.820;12.808;2022-11-20T04:16:24;9.50;99.90
32839;DHT22;19182;41.820;12.808;2022-11-20T04:18:54;9.50;99.90
32839;DHT22;19182;41.820;12.808;2022-11-20T04:21:23;9.50;99.90
32839;DHT22;19182;41.820;12.808;2022-11-20T04:23:50;9.60;99.90
32839;DHT22;19182;41.820;12.808;2022-11-20T04:26:17;9.60;99.90
32839;DHT22;19182;41.820;12.808;2022-11-20T04:28:43;9.50;99.90
32839;DHT22;19182;41.820;12.808;2022-11-20T04:31:14;9.60;99.90
32839;DHT22;19182;41.820;12.808;2022-11-20T04:33:40;9.60;99.90
32839;DHT22;19182;41.820;12.808;2022-11-20T04:38:36;9.50;99.90
32839;DHT22;19182;41.820;12.808;2022-11-20T04:41:04;9.60;99.90
32839;DHT22;19182;41.820;12.808;2022-11-20T04:43:30;9.60;99.90
32839;DHT22;19182;41.820;12.808;2022-11-20T04:45:57;9.60;99.90
32839;DHT22;19182;41.820;12.808;2022-11-20T04:48:24;9.70;99.90
32839;DHT22;19182;41.820;12.808;2022-11-20T04:50:51;9.70;99.90
32839;DHT22;19182;41.820;12.808;2022-11-20T04:53:18;9.70;99.90
32839;DHT22;19182;41.820;12.808;2022-11-20T04:55:44;9.70;99.90
32839;DHT22;19182;41.820;12.808;2022-11-20T04:58:09;9.70;99.90
32839;DHT22;19182;41.820;12.808;2022-11-20T05:00:35;9.70;99.90
32839;DHT22;19182;41.820;12.808;2022-11-20T05:03:01;9.60;99.90
32839;DHT22;19182;41.820;12.808;2022-11-20T05:05:27;9.60;99.90
32839;DHT22;19182;41.820;12.808;2022-11-20T05:07:56;9.60;99.90
32839;DHT22;19182;41.820;12.808;2022-11-20T05:10:21;9.70;99.90
32839;DHT22;19182;41.820;12.808;2022-11-20T05:12:48;9.70;99.90
32839;DHT22;19182;41.820;12.808;2022-11-20T05:15:14;9.70;99.90
32839;DHT22;19182;41.820;12.808;2022-11-20T05:17:40;9.60;99.90
32839;DHT22;19182;41.820;12.808;2022-11-20T05:20:06;9.60;99.90
32839;DHT22;19182;41.820;12.808;2022-11-20T05:22:34;9.50;99.90
32839;DHT22;19182;41.820;12.808;2022-11-20T05:25:03;9.50;99.90
32839;DHT22;19182;41.820;12.808;2022-11-20T05:27:29;9.50;99.90
32839;DHT22;19182;41.820;12.808;2022-11-20T05:29:55;9.50;99.90
32839;DHT22;19182;41.820;12.808;2022-11-20T05:32:21;9.50;99.90
32839;DHT22;19182;41.820;12.808;2022-11-20T05:34:53;9.70;99.90
32839;DHT22;19182;41.820;12.808;2022-11-20T05:37:19;9.70;99.90
32839;DHT22;19182;41.820;12.808;2022-11-20T05:39:45;9.60;99.90
32839;DHT22;19182;41.820;12.808;2022-11-20T05:42:11;9.50;99.90
32839;DHT22;19182;41.820;12.808;2022-11-20T05:44:55;9.70;99.90
32839;DHT22;19182;41.820;12.808;2022-11-20T05:47:21;9.60;99.90
32839;DHT22;19182;41.820;12.808;2022-11-20T05:49:47;9.60;99.90
32839;DHT22;19182;41.820;12.808;2022-11-20T05:52:13;9.60;99.90
32839;DHT22;19182;41.820;12.808;2022-11-20T05:54:38;9.60;99.90
32839;DHT22;19182;41.820;12.808;2022-11-20T05:57:04;9.50;99.90
32839;DHT22;19182;41.820;12.808;2022-11-20T05:59:30;9.50;99.90
32839;DHT22;19182;41.820;12.808;2022-11-20T06:01:56;9.50;99.90
32839;DHT22;19182;41.820;12.808;2022-11-20T06:04:21;9.60;99.90
32839;DHT22;19182;41.820;12.808;2022-11-20T06:06:47;9.70;99.90
32839;DHT22;19182;41.820;12.808;2022-11-20T06:09:16;9.50;99.90
32839;DHT22;19182;41.820;12.808;2022-11-20T06:11:41;9.50;99.90
32839;DHT22;19182;41.820;12.808;2022-11-20T06:14:07;9.50;99.90
32839;DHT22;19182;41.820;12.808;2022-11-20T06:16:34;9.30;99.90
32839;DHT22;19182;41.820;12.808;2022-11-20T06:18:59;9.20;99.90
32839;DHT22;19182;41.820;12.808;2022-11-20T06:21:25;9.40;99.90
32839;DHT22;19182;41.820;12.808;2022-11-20T06:23:52;9.40;99.90
32839;DHT22;19182;41.820;12.808;2022-11-20T06:26:21;7.80;99.90
32839;DHT22;19182;41.820;12.808;2022-11-20T06:28:53;9.40;99.90
32839;DHT22;19182;41.820;12.808;2022-11-20T06:31:21;9.50;99.90
32839;DHT22;19182;41.820;12.808;2022-11-20T06:33:48;9.50;99.90
32839;DHT22;19182;41.820;12.808;2022-11-20T06:36:16;9.60;99.90
32839;DHT22;19182;41.820;12.808;2022-11-20T06:38:43;9.80;99.90
32839;DHT22;19182;41.820;12.808;2022-11-20T06:41:12;9.90;99.90
32839;DHT22;19182;41.820;12.808;2022-11-20T06:43:38;9.80;99.90
32839;DHT22;19182;41.820;12.808;2022-11-20T06:46:04;9.90;99.90
32839;DHT22;19182;41.820;12.808;2022-11-20T06:48:34;10.00;99.90
32839;DHT22;19182;41.820;12.808;2022-11-20T06:51:03;10.10;99.90
32839;DHT22;19182;41.820;12.808;2022-11-20T06:53:29;10.20;99.90
32839;DHT22;19182;41.820;12.808;2022-11-20T06:55:56;10.40;99.90
32839;DHT22;19182;41.820;12.808;2022-11-20T06:58:23;10.50;99.90
32839;DHT22;19182;41.820;12.808;2022-11-20T07:00:48;10.70;99.90
32839;DHT22;19182;41.820;12.808;2022-11-20T07:03:14;10.70;99.90
32839;DHT22;19182;41.820;12.808;2022-11-20T07:05:40;10.90;99.90
32839;DHT22;19182;41.820;12.808;2022-11-20T07:08:07;11.10;99.90
32839;DHT22;19182;41.820;12.808;2022-11-20T07:10:33;11.30;99.90
32839;DHT22;19182;41.820;12.808;2022-11-20T07:12:59;11.60;99.90
32839;DHT22;19182;41.820;12.808;2022-11-20T07:15:25;11.70;99.90
32839;DHT22;19182;41.820;12.808;2022-11-20T07:17:52;11.80;99.90
32839;DHT22;19182;41.820;12.808;2022-11-20T07:20:18;11.70;99.90
32839;DHT22;19182;41.820;12.808;2022-11-20T07:22:43;11.60;99.90
32839;DHT22;19182;41.820;12.808;2022-11-20T07:25:13;11.60;99.90
32839;DHT22;19182;41.820;12.808;2022-11-20T07:27:40;11.50;99.90
32839;DHT22;19182;41.820;12.808;2022-11-20T07:30:06;11.50;99.90
32839;DHT22;19182;41.820;12.808;2022-11-20T07:32:32;11.50;99.90
32839;DHT22;19182;41.820;12.808;2022-11-20T07:34:57;11.60;99.90
32839;DHT22;19182;41.820;12.808;2022-11-20T07:37:23;12.10;99.90
32839;DHT22;19182;41.820;12.808;2022-11-20T07:39:49;12.60;99.90
32839;DHT22;19182;41.820;12.808;2022-11-20T07:42:16;13.60;99.90
32839;DHT22;19182;41.820;12.808;2022-11-20T07:44:41;14.70;99.90
32839;DHT22;19182;41.820;12.808;2022-11-20T07:47:08;15.70;99.90
32839;DHT22;19182;41.820;12.808;2022-11-20T07:49:33;16.30;99.90
32839;DHT22;19182;41.820;12.808;2022-11-20T07:51:59;17.10;99.90
32839;DHT22;19182;41.820;12.808;2022-11-20T07:54:25;17.90;99.90
32839;DHT22;19182;41.820;12.808;2022-11-20T07:56:51;17.80;99.90
32839;DHT22;19182;41.820;12.808;2022-11-20T07:59:17;17.00;99.90
32839;DHT22;19182;41.820;12.808;2022-11-20T08:01:42;16.30;99.90
32839;DHT22;19182;41.820;12.808;2022-11-20T08:04:09;15.10;99.90
32839;DHT22;19182;41.820;12.808;2022-11-20T08:06:35;14.40;99.90
32839;DHT22;19182;41.820;12.808;2022-11-20T08:09:02;13.90;99.90
32839;DHT22;19182;41.820;12.808;2022-11-20T08:11:27;13.60;99.90
32839;DHT22;19182;41.820;12.808;2022-11-20T08:14:13;13.50;99.90
32839;DHT22;19182;41.820;12.808;2022-11-20T08:16:43;13.20;99.90
32839;DHT22;19182;41.820;12.808;2022-11-20T08:19:10;13.60;99.90
32839;DHT22;19182;41.820;12.808;2022-11-20T08:21:36;13.70;99.90
32839;DHT22;19182;41.820;12.808;2022-11-20T08:24:02;13.90;99.90
32839;DHT22;19182;41.820;12.808;2022-11-20T08:26:28;14.10;99.90
32839;DHT22;19182;41.820;12.808;2022-11-20T08:28:55;15.10;99.90
32839;DHT22;19182;41.820;12.808;2022-11-20T08:31:21;15.60;99.90
32839;DHT22;19182;41.820;12.808;2022-11-20T08:33:49;16.40;99.90
32839;DHT22;19182;41.820;12.808;2022-11-20T08:36:15;16.70;99.90
32839;DHT22;19182;41.820;12.808;2022-11-20T08:38:41;16.30;99.90
32839;DHT22;19182;41.820;12.808;2022-11-20T08:41:06;15.40;99.90
32839;DHT22;19182;41.820;12.808;2022-11-20T08:44:00;15.10;99.90
32839;DHT22;19182;41.820;12.808;2022-11-20T08:46:32;15.10;99.90
32839;DHT22;19182;41.820;12.808;2022-11-20T08:48:59;15.90;99.90
32839;DHT22;19182;41.820;12.808;2022-11-20T08:51:28;17.70;99.90
32839;DHT22;19182;41.820;12.808;2022-11-20T08:53:54;18.10;99.90
32839;DHT22;19182;41.820;12.808;2022-11-20T08:56:23;17.90;99.90
32839;DHT22;19182;41.820;12.808;2022-11-20T08:58:50;17.10;99.90
32839;DHT22;19182;41.820;12.808;2022-11-20T09:01:19;16.20;99.90
32839;DHT22;19182;41.820;12.808;2022-11-20T09:03:45;15.70;99.90
32839;DHT22;19182;41.820;12.808;2022-11-20T09:06:11;14.90;99.90
32839;DHT22;19182;41.820;12.808;2022-11-20T09:08:37;14.40;99.90
32839;DHT22;19182;41.820;12.808;2022-11-20T09:11:04;14.20;99.90
32839;DHT22;19182;41.820;12.808;2022-11-20T09:13:31;14.40;99.90
32839;DHT22;19182;41.820;12.808;2022-11-20T09:16:03;15.20;99.90
32839;DHT22;19182;41.820;12.808;2022-11-20T09:18:33;16.60;99.90
32839;DHT22;19182;41.820;12.808;2022-11-20T09:21:03;17.70;99.90
32839;DHT22;19182;41.820;12.808;2022-11-20T09:23:34;18.60;99.90
32839;DHT22;19182;41.820;12.808;2022-11-20T09:26:11;19.80;99.90
32839;DHT22;19182;41.820;12.808;2022-11-20T09:28:38;21.10;99.90
32839;DHT22;19182;41.820;12.808;2022-11-20T09:31:23;21.40;99.90
32839;DHT22;19182;41.820;12.808;2022-11-20T09:33:49;21.70;99.90
32839;DHT22;19182;41.820;12.808;2022-11-20T09:36:15;22.10;99.90
32839;DHT22;19182;41.820;12.808;2022-11-20T09:38:45;22.90;99.90
32839;DHT22;19182;41.820;12.808;2022-11-20T09:48:25;24.10;99.90
32839;DHT22;19182;41.820;12.808;2022-11-20T09:56:12;24.30;99.90
32839;DHT22;19182;41.820;12.808;2022-11-20T09:58:45;23.00;99.90
32839;DHT22;19182;41.820;12.808;2022-11-20T10:04:10;21.10;99.90
32839;DHT22;19182;41.820;12.808;2022-11-20T10:07:07;20.10;99.90
32839;DHT22;19182;41.820;12.808;2022-11-20T10:09:47;19.40;99.90
32839;DHT22;19182;41.820;12.808;2022-11-20T10:26:29;20.50;99.90
32839;DHT22;19182;41.820;12.808;2022-11-20T10:29:13;19.90;99.90
32839;DHT22;19182;41.820;12.808;2022-11-20T10:36:54;16.90;99.90
32839;DHT22;19182;41.820;12.808;2022-11-20T10:42:16;16.20;99.90
32839;DHT22;19182;41.820;12.808;2022-11-20T10:44:47;15.90;99.90
32839;DHT22;19182;41.820;12.808;2022-11-20T10:47:30;15.50;99.90
32839;DHT22;19182;41.820;12.808;2022-11-20T10:50:00;15.20;99.90
32839;DHT22;19182;41.820;12.808;2022-11-20T10:55:45;14.90;99.90
32839;DHT22;19182;41.820;12.808;2022-11-20T11:01:13;14.50;99.90
32839;DHT22;19182;41.820;12.808;2022-11-20T11:03:39;14.20;99.90
32839;DHT22;19182;41.820;12.808;2022-11-20T11:08:55;13.90;99.90
32839;DHT22;19182;41.820;12.808;2022-11-20T11:11:30;13.90;99.90
32839;DHT22;19182;41.820;12.808;2022-11-20T11:14:08;13.90;99.90
32839;DHT22;19182;41.820;12.808;2022-11-20T11:16:34;13.90;99.90
32839;DHT22;19182;41.820;12.808;2022-11-20T11:19:11;13.80;99.90
32839;DHT22;19182;41.820;12.808;2022-11-20T11:21:37;13.90;99.90
32839;DHT22;19182;41.820;12.808;2022-11-20T11:24:28;13.80;99.90
32839;DHT22;19182;41.820;12.808;2022-11-20T11:27:10;13.80;99.90
32839;DHT22;19182;41.820;12.808;2022-11-20T11:29:36;13.90;99.90
32839;DHT22;19182;41.820;12.808;2022-11-20T11:32:14;14.10;99.90
32839;DHT22;19182;41.820;12.808;2022-11-20T11:34:43;14.00;99.90
32839;DHT22;19182;41.820;12.808;2022-11-20T11:37:20;13.90;99.90
32839;DHT22;19182;41.820;12.808;2022-11-20T11:39:50;13.80;99.90
32839;DHT22;19182;41.820;12.808;2022-11-20T11:42:18;13.80;99.90
32839;DHT22;19182;41.820;12.808;2022-11-20T11:44:47;13.70;99.90
32839;DHT22;19182;41.820;12.808;2022-11-20T11:47:42;13.70;99.90
32839;DHT22;19182;41.820;12.808;2022-11-20T11:52:58;13.40;99.90
32839;DHT22;19182;41.820;12.808;2022-11-20T11:55:47;13.50;99.90
32839;DHT22;19182;41.820;12.808;2022-11-20T12:06:38;13.70;99.90
32839;DHT22;19182;41.820;12.808;2022-11-20T12:09:10;13.80;99.90
32839;DHT22;19182;41.820;12.808;2022-11-20T12:11:51;13.90;99.90
32839;DHT22;19182;41.820;12.808;2022-11-20T12:14:33;13.80;99.90
32839;DHT22;19182;41.820;12.808;2022-11-20T12:17:01;13.80;99.90
32839;DHT22;19182;41.820;12.808;2022-11-20T12:19:29;13.80;99.90
32839;DHT22;19182;41.820;12.808;2022-11-20T12:53:34;14.40;99.90
32839;DHT22;19182;41.820;12.808;2022-11-20T12:56:12;14.40;99.90
32839;DHT22;19182;41.820;12.808;2022-11-20T13:07:25;15.00;99.90
32839;DHT22;19182;41.820;12.808;2022-11-20T13:09:53;15.00;99.90
32839;DHT22;19182;41.820;12.808;2022-11-20T13:15:27;15.30;99.90
32839;DHT22;19182;41.820;12.808;2022-11-20T13:18:34;15.50;99.90
32839;DHT22;19182;41.820;12.808;2022-11-20T13:20:42;15.70;99.90
32839;DHT22;19182;41.820;12.808;2022-11-20T13:23:09;15.70;99.90
32839;DHT22;19182;41.820;12.808;2022-11-20T13:25:39;15.60;99.90
32839;DHT22;19182;41.820;12.808;2022-11-20T13:28:28;15.50;99.90
32839;DHT22;19182;41.820;12.808;2022-11-20T13:30:57;15.30;99.90
32839;DHT22;19182;41.820;12.808;2022-11-20T13:33:32;15.20;99.90
32839;DHT22;19182;41.820;12.808;2022-11-20T13:36:04;15.20;99.90
32839;DHT22;19182;41.820;12.808;2022-11-20T13:38:46;15.20;99.90
32839;DHT22;19182;41.820;12.808;2022-11-20T13:41:33;15.30;99.90
32839;DHT22;19182;41.820;12.808;2022-11-20T13:44:23;15.10;99.90
32839;DHT22;19182;41.820;12.808;2022-11-20T13:46:50;14.90;99.90
32839;DHT22;19182;41.820;12.808;2022-11-20T13:49:38;14.70;99.90
32839;DHT22;19182;41.820;12.808;2022-11-20T13:55:32;14.50;99.90
32839;DHT22;19182;41.820;12.808;2022-11-20T14:01:11;14.30;99.90
32839;DHT22;19182;41.820;12.808;2022-11-20T14:03:40;14.30;99.90
32839;DHT22;19182;41.820;12.808;2022-11-20T14:06:28;14.20;99.90
32839;DHT22;19182;41.820;12.808;2022-11-20T14:08:58;14.20;99.90
32839;DHT22;19182;41.820;12.808;2022-11-20T14:11:27;14.30;99.90
32839;DHT22;19182;41.820;12.808;2022-11-20T14:14:17;14.30;99.90
32839;DHT22;19182;41.820;12.808;2022-11-20T14:16:43;14.30;99.90
32839;DHT22;19182;41.820;12.808;2022-11-20T14:19:33;14.40;99.90
32839;DHT22;19182;41.820;12.808;2022-11-20T14:25:23;14.30;99.90
32839;DHT22;19182;41.820;12.808;2022-11-20T14:28:02;14.30;99.90
32839;DHT22;19182;41.820;12.808;2022-11-20T14:30:46;14.30;99.90
32839;DHT22;19182;41.820;12.808;2022-11-20T14:33:14;14.30;99.90
32839;DHT22;19182;41.820;12.808;2022-11-20T14:35:54;14.20;99.90
32839;DHT22;19182;41.820;12.808;2022-11-20T14:38:37;14.20;99.90
32839;DHT22;19182;41.820;12.808;2022-11-20T14:41:17;14.10;99.90
32839;DHT22;19182;41.820;12.808;2022-11-20T14:43:47;14.00;99.90
32839;DHT22;19182;41.820;12.808;2022-11-20T14:46:14;14.00;99.90
32839;DHT22;19182;41.820;12.808;2022-11-20T14:51:12;13.90;99.90
32839;DHT22;19182;41.820;12.808;2022-11-20T14:53:48;13.80;99.90
32839;DHT22;19182;41.820;12.808;2022-11-20T14:56:23;13.80;99.90
32839;DHT22;19182;41.820;12.808;2022-11-20T14:59:10;13.70;99.90
32839;DHT22;19182;41.820;12.808;2022-11-20T15:04:09;13.70;99.90
32839;DHT22;19182;41.820;12.808;2022-11-20T15:06:35;13.60;99.90
32839;DHT22;19182;41.820;12.808;2022-11-20T15:09:03;13.50;99.90
32839;DHT22;19182;41.820;12.808;2022-11-20T15:11:32;13.60;99.90
32839;DHT22;19182;41.820;12.808;2022-11-20T15:14:03;13.50;99.90
32839;DHT22;19182;41.820;12.808;2022-11-20T15:26:24;13.20;99.90
32839;DHT22;19182;41.820;12.808;2022-11-20T15:28:51;13.20;99.90
32839;DHT22;19182;41.820;12.808;2022-11-20T15:31:19;12.90;99.90
32839;DHT22;19182;41.820;12.808;2022-11-20T15:33:46;12.90;99.90
32839;DHT22;19182;41.820;12.808;2022-11-20T15:38:39;12.80;99.90
32839;DHT22;19182;41.820;12.808;2022-11-20T15:41:07;12.70;99.90
32839;DHT22;19182;41.820;12.808;2022-11-20T15:43:33;12.70;99.90
32839;DHT22;19182;41.820;12.808;2022-11-20T15:46:06;12.70;99.90
32839;DHT22;19182;41.820;12.808;2022-11-20T15:48:42;12.50;99.90
32839;DHT22;19182;41.820;12.808;2022-11-20T15:51:21;12.30;99.90
32839;DHT22;19182;41.820;12.808;2022-11-20T15:53:50;12.50;99.90
32839;DHT22;19182;41.820;12.808;2022-11-20T15:56:17;12.30;99.90
32839;DHT22;19182;41.820;12.808;2022-11-20T16:01:21;12.20;99.90
32839;DHT22;19182;41.820;12.808;2022-11-20T16:13:59;11.70;99.90
32839;DHT22;19182;41.820;12.808;2022-11-20T16:16:43;11.60;99.90
32839;DHT22;19182;41.820;12.808;2022-11-20T16:19:11;11.50;99.90
32839;DHT22;19182;41.820;12.808;2022-11-20T16:21:43;11.50;99.90
32839;DHT22;19182;41.820;12.808;2022-11-20T16:24:12;11.40;99.90
32839;DHT22;19182;41.820;12.808;2022-11-20T16:26:39;11.40;99.90
32839;DHT22;19182;41.820;12.808;2022-11-20T16:29:05;11.30;99.90
32839;DHT22;19182;41.820;12.808;2022-11-20T16:31:32;11.30;99.90
32839;DHT22;19182;41.820;12.808;2022-11-20T16:34:01;11.30;99.90
32839;DHT22;19182;41.820;12.808;2022-11-20T16:39:32;11.30;99.90
32839;DHT22;19182;41.820;12.808;2022-11-20T16:46:59;11.20;99.90
32839;DHT22;19182;41.820;12.808;2022-11-20T16:51:52;11.10;99.90
32839;DHT22;19182;41.820;12.808;2022-11-20T16:54:19;11.10;99.90
32839;DHT22;19182;41.820;12.808;2022-11-20T16:56:45;11.00;99.90
32839;DHT22;19182;41.820;12.808;2022-11-20T16:59:12;11.00;99.90
32839;DHT22;19182;41.820;12.808;2022-11-20T17:01:39;11.00;99.90
32839;DHT22;19182;41.820;12.808;2022-11-20T17:04:08;10.90;99.90
32839;DHT22;19182;41.820;12.808;2022-11-20T17:06:43;10.90;99.90
32839;DHT22;19182;41.820;12.808;2022-11-20T17:09:09;10.90;99.90
32839;DHT22;19182;41.820;12.808;2022-11-20T17:11:36;10.90;99.90
32839;DHT22;19182;41.820;12.808;2022-11-20T17:14:02;10.90;99.90
32839;DHT22;19182;41.820;12.808;2022-11-20T17:16:29;10.70;99.90
32839;DHT22;19182;41.820;12.808;2022-11-20T17:18:57;10.80;99.90
32839;DHT22;19182;41.820;12.808;2022-11-20T17:21:23;10.80;99.90
32839;DHT22;19182;41.820;12.808;2022-11-20T17:23:49;10.70;99.90
32839;DHT22;19182;41.820;12.808;2022-11-20T17:26:17;10.70;99.90
32839;DHT22;19182;41.820;12.808;2022-11-20T17:28:45;10.60;99.90
32839;DHT22;19182;41.820;12.808;2022-11-20T17:33:40;10.50;99.90
32839;DHT22;19182;41.820;12.808;2022-11-20T17:36:08;10.50;99.90
32839;DHT22;19182;41.820;12.808;2022-11-20T17:38:34;10.40;99.90
32839;DHT22;19182;41.820;12.808;2022-11-20T17:45:55;10.30;99.90
32839;DHT22;19182;41.820;12.808;2022-11-20T17:48:22;10.10;99.90
32839;DHT22;19182;41.820;12.808;2022-11-20T17:58:28;9.90;99.90
32839;DHT22;19182;41.820;12.808;2022-11-20T18:00:53;9.80;99.90
32839;DHT22;19182;41.820;12.808;2022-11-20T18:16:16;9.80;99.90
32839;DHT22;19182;41.820;12.808;2022-11-20T18:26:00;9.70;99.90
32839;DHT22;19182;41.820;12.808;2022-11-20T18:35:45;9.70;99.90
32839;DHT22;19182;41.820;12.808;2022-11-20T18:40:37;9.60;99.90
32839;DHT22;19182;41.820;12.808;2022-11-20T18:43:03;9.50;99.90
32839;DHT22;19182;41.820;12.808;2022-11-20T18:45:48;9.60;99.90
32839;DHT22;19182;41.820;12.808;2022-11-20T18:48:13;9.50;99.90
32839;DHT22;19182;41.820;12.808;2022-11-20T18:53:05;9.40;99.90
32839;DHT22;19182;41.820;12.808;2022-11-20T18:55:31;9.30;99.90
32839;DHT22;19182;41.820;12.808;2022-11-20T19:00:24;9.30;99.90
32839;DHT22;19182;41.820;12.808;2022-11-20T19:02:52;9.40;99.90